sensor_id;sensor_type;location;lat;lon;timestamp;pressure;altitude;pressure_sealevel;temperature;humidity
78014;BME280;67222;50.182;8.734;2023-02-28T05:32:10;101675.56;;;-1.60;73.43
78014;BME280;67222;50.182;8.734;2023-02-28T05:34:37;101676.78;;;-1.52;73.22
78014;BME280;67222;50.182;8.734;2023-02-28T05:37:02;101679.47;;;-1.53;72.55
78014;BME280;67222;50.182;8.734;2023-02-28T05:39:28;101680.81;;;-1.46;72.76
78014;BME280;67222;50.182;8.734;2023-02-28T05:41:53;101676.88;;;-1.53;72.53
78014;BME280;67222;50.182;8.734;2023-02-28T05:44:18;101681.63;;;-1.45;73.62
78014;BME280;67222;50.182;8.734;2023-02-28T05:46:44;101682.28;;;-1.42;73.23
78014;BME280;67222;50.182;8.734;2023-02-28T05:49:09;101681.44;;;-1.28;72.24
78014;BME280;67222;50.182;8.734;2023-02-28T05:51:34;101678.06;;;-1.30;71.94
78014;BME280;67222;50.182;8.734;2023-02-28T05:54:01;101688.91;;;-1.36;72.71
78014;BME280;67222;50.182;8.734;2023-02-28T05:56:27;101689.75;;;-1.36;72.68
78014;BME280;67222;50.182;8.734;2023-02-28T05:58:52;101679.28;;;-1.36;72.06
78014;BME280;67222;50.182;8.734;2023-02-28T06:03:46;101677.88;;;-1.41;71.76
78014;BME280;67222;50.182;8.734;2023-02-28T06:06:11;101684.34;;;-1.47;72.08
78014;BME280;67222;50.182;8.734;2023-02-28T06:08:37;101675.66;;;-1.47;72.25
78014;BME280;67222;50.182;8.734;2023-02-28T06:11:03;101691.06;;;-1.43;72.25
78014;BME280;67222;50.182;8.734;2023-02-28T06:13:28;101683.69;;;-1.50;72.76
78014;BME280;67222;50.182;8.734;2023-02-28T06:15:54;101684.91;;;-1.56;72.09
78014;BME280;67222;50.182;8.734;2023-02-28T06:18:19;101688.56;;;-1.59;72.34
78014;BME280;67222;50.182;8.734;2023-02-28T06:20:44;101692.09;;;-1.60;72.34
78014;BME280;67222;50.182;8.734;2023-02-28T06:23:10;101698.19;;;-1.59;72.30
78014;BME280;67222;50.182;8.734;2023-02-28T06:25:35;101695.09;;;-1.66;72.56
78014;BME280;67222;50.182;8.734;2023-02-28T06:28:00;101694.63;;;-1.72;72.47
78014;BME280;67222;50.182;8.734;2023-02-28T06:30:25;101692.09;;;-1.74;72.20
78014;BME280;67222;50.182;8.734;2023-02-28T06:32:53;101695.91;;;-1.94;72.86
78014;BME280;67222;50.182;8.734;2023-02-28T06:35:19;101702.19;;;-1.96;73.33
78014;BME280;67222;50.182;8.734;2023-02-28T06:37:45;101701.81;;;-1.90;72.65
78014;BME280;67222;50.182;8.734;2023-02-28T06:40:10;101705.63;;;-1.96;72.96
78014;BME280;67222;50.182;8.734;2023-02-28T06:42:36;101701.53;;;-2.00;72.91
78014;BME280;67222;50.182;8.734;2023-02-28T06:45:01;101709.56;;;-2.03;73.31
78014;BME280;67222;50.182;8.734;2023-02-28T06:47:31;101712.81;;;-1.99;73.46
78014;BME280;67222;50.182;8.734;2023-02-28T06:49:56;101705.63;;;-1.96;73.79
78014;BME280;67222;50.182;8.734;2023-02-28T06:52:21;101722.63;;;-2.03;72.94
78014;BME280;67222;50.182;8.734;2023-02-28T06:54:47;101718.22;;;-2.02;73.83
78014;BME280;67222;50.182;8.734;2023-02-28T06:57:12;101716.84;;;-1.79;73.43
78014;BME280;67222;50.182;8.734;2023-02-28T06:59:37;101719.38;;;-1.78;73.31
78014;BME280;67222;50.182;8.734;2023-02-28T07:02:03;101727.31;;;-1.65;73.04
78014;BME280;67222;50.182;8.734;2023-02-28T07:04:28;101724.31;;;-1.73;73.23
78014;BME280;67222;50.182;8.734;2023-02-28T07:06:54;101723.78;;;-1.64;73.05
78014;BME280;67222;50.182;8.734;2023-02-28T07:09:21;101731.81;;;-1.67;72.54
78014;BME280;67222;50.182;8.734;2023-02-28T07:11:47;101731.63;;;-1.64;72.13
78014;BME280;67222;50.182;8.734;2023-02-28T07:14:12;101731.63;;;-1.64;72.54
78014;BME280;67222;50.182;8.734;2023-02-28T07:16:37;101731.81;;;-1.67;72.23
78014;BME280;67222;50.182;8.734;2023-02-28T07:19:02;101733.84;;;-1.58;71.93
78014;BME280;67222;50.182;8.734;2023-02-28T07:21:28;101740.38;;;-1.51;72.04
78014;BME280;67222;50.182;8.734;2023-02-28T07:23:53;101741.13;;;-1.49;72.51
78014;BME280;67222;50.182;8.734;2023-02-28T07:26:20;101740.22;;;-1.48;72.63
78014;BME280;67222;50.182;8.734;2023-02-28T07:28:47;101726.31;;;-1.48;72.07
78014;BME280;67222;50.182;8.734;2023-02-28T07:31:13;101730.41;;;-1.44;72.23
78014;BME280;67222;50.182;8.734;2023-02-28T07:33:40;101726.25;;;-1.34;72.56
78014;BME280;67222;50.182;8.734;2023-02-28T07:36:08;101729.16;;;-1.39;73.02
78014;BME280;67222;50.182;8.734;2023-02-28T07:38:35;101727.50;;;-1.40;73.14
78014;BME280;67222;50.182;8.734;2023-02-28T07:41:00;101732.25;;;-1.32;72.46
78014;BME280;67222;50.182;8.734;2023-02-28T07:43:29;101719.63;;;-1.26;71.55
78014;BME280;67222;50.182;8.734;2023-02-28T07:45:55;101735.34;;;-1.26;72.56
78014;BME280;67222;50.182;8.734;2023-02-28T07:48:20;101727.63;;;-1.14;71.93
78014;BME280;67222;50.182;8.734;2023-02-28T07:50:54;101724.34;;;-1.04;71.53
78014;BME280;67222;50.182;8.734;2023-02-28T07:53:20;101731.25;;;-0.88;69.94
78014;BME280;67222;50.182;8.734;2023-02-28T07:55:45;101732.22;;;-0.77;69.71
78014;BME280;67222;50.182;8.734;2023-02-28T07:58:10;101734.25;;;-0.68;69.80
78014;BME280;67222;50.182;8.734;2023-02-28T08:00:36;101730.84;;;-0.55;68.86
78014;BME280;67222;50.182;8.734;2023-02-28T08:03:01;101731.72;;;-0.42;67.03
78014;BME280;67222;50.182;8.734;2023-02-28T08:05:26;101735.44;;;-0.32;67.31
78014;BME280;67222;50.182;8.734;2023-02-28T08:07:52;101720.66;;;-0.20;65.70
78014;BME280;67222;50.182;8.734;2023-02-28T08:10:18;101734.72;;;-0.09;65.52
78014;BME280;67222;50.182;8.734;2023-02-28T08:12:43;101737.91;;;0.09;63.00
78014;BME280;67222;50.182;8.734;2023-02-28T08:15:09;101727.31;;;0.23;63.38
78014;BME280;67222;50.182;8.734;2023-02-28T08:17:34;101719.41;;;0.36;61.47
78014;BME280;67222;50.182;8.734;2023-02-28T08:19:59;101729.28;;;0.45;61.57
78014;BME280;67222;50.182;8.734;2023-02-28T08:22:25;101725.59;;;0.60;59.96
78014;BME280;67222;50.182;8.734;2023-02-28T08:24:50;101728.41;;;0.70;58.95
78014;BME280;67222;50.182;8.734;2023-02-28T08:27:15;101727.03;;;0.77;59.60
78014;BME280;67222;50.182;8.734;2023-02-28T08:29:40;101728.16;;;0.86;58.82
78014;BME280;67222;50.182;8.734;2023-02-28T08:32:07;101726.28;;;0.88;59.55
78014;BME280;67222;50.182;8.734;2023-02-28T08:34:32;101724.69;;;0.98;59.97
78014;BME280;67222;50.182;8.734;2023-02-28T08:36:57;101726.63;;;1.07;58.07
78014;BME280;67222;50.182;8.734;2023-02-28T08:39:23;101730.50;;;1.14;58.13
78014;BME280;67222;50.182;8.734;2023-02-28T08:41:48;101718.38;;;1.25;57.25
78014;BME280;67222;50.182;8.734;2023-02-28T08:44:13;101722.38;;;1.30;58.50
78014;BME280;67222;50.182;8.734;2023-02-28T08:46:38;101723.59;;;1.37;56.47
78014;BME280;67222;50.182;8.734;2023-02-28T08:49:04;101722.28;;;1.43;56.95
78014;BME280;67222;50.182;8.734;2023-02-28T08:51:29;101714.16;;;1.46;55.76
78014;BME280;67222;50.182;8.734;2023-02-28T08:53:58;101720.94;;;1.61;55.24
78014;BME280;67222;50.182;8.734;2023-02-28T08:56:25;101716.63;;;1.60;56.07
78014;BME280;67222;50.182;8.734;2023-02-28T08:58:51;101721.38;;;1.55;55.81
78014;BME280;67222;50.182;8.734;2023-02-28T09:01:19;101728.09;;;1.59;55.98
78014;BME280;67222;50.182;8.734;2023-02-28T09:03:47;101716.44;;;1.74;55.24
78014;BME280;67222;50.182;8.734;2023-02-28T09:06:14;101721.09;;;1.82;53.81
78014;BME280;67222;50.182;8.734;2023-02-28T09:08:40;101715.25;;;1.78;52.55
78014;BME280;67222;50.182;8.734;2023-02-28T09:11:06;101715.53;;;1.87;53.11
78014;BME280;67222;50.182;8.734;2023-02-28T09:13:32;101720.56;;;2.01;52.50
78014;BME280;67222;50.182;8.734;2023-02-28T09:15:58;101718.19;;;2.09;52.44
78014;BME280;67222;50.182;8.734;2023-02-28T09:18:24;101722.03;;;2.16;52.63
78014;BME280;67222;50.182;8.734;2023-02-28T09:20:50;101720.72;;;2.22;52.10
78014;BME280;67222;50.182;8.734;2023-02-28T09:23:16;101717.03;;;2.35;52.29
78014;BME280;67222;50.182;8.734;2023-02-28T09:25:53;101709.50;;;2.42;51.06
78014;BME280;67222;50.182;8.734;2023-02-28T09:28:19;101712.25;;;2.52;49.76
78014;BME280;67222;50.182;8.734;2023-02-28T09:30:46;101710.69;;;2.49;50.04
78014;BME280;67222;50.182;8.734;2023-02-28T09:33:12;101709.25;;;2.56;50.14
78014;BME280;67222;50.182;8.734;2023-02-28T09:35:38;101720.50;;;2.69;49.38
78014;BME280;67222;50.182;8.734;2023-02-28T09:38:04;101710.69;;;2.83;48.99
78014;BME280;67222;50.182;8.734;2023-02-28T09:40:30;101704.09;;;2.77;49.60
78014;BME280;67222;50.182;8.734;2023-02-28T09:42:57;101706.50;;;2.80;48.43
78014;BME280;67222;50.182;8.734;2023-02-28T09:45:32;101709.34;;;2.88;48.35
78014;BME280;67222;50.182;8.734;2023-02-28T09:48:04;101714.38;;;2.91;49.18
78014;BME280;67222;50.182;8.734;2023-02-28T09:50:41;101709.09;;;3.02;47.56
78014;BME280;67222;50.182;8.734;2023-02-28T09:55:50;101706.28;;;3.15;47.42
78014;BME280;67222;50.182;8.734;2023-02-28T10:01:03;101708.31;;;3.23;46.92
78014;BME280;67222;50.182;8.734;2023-02-28T10:03:36;101711.41;;;3.28;47.42
78014;BME280;67222;50.182;8.734;2023-02-28T10:06:09;101702.44;;;3.51;45.79
78014;BME280;67222;50.182;8.734;2023-02-28T10:08:57;101700.72;;;3.82;46.11
78014;BME280;67222;50.182;8.734;2023-02-28T10:11:24;101699.59;;;3.96;47.05
78014;BME280;67222;50.182;8.734;2023-02-28T10:13:56;101694.63;;;3.82;45.65
78014;BME280;67222;50.182;8.734;2023-02-28T10:19:06;101719.00;;;3.53;46.72
78014;BME280;67222;50.182;8.734;2023-02-28T10:21:38;101707.91;;;3.39;46.33
78014;BME280;67222;50.182;8.734;2023-02-28T10:26:44;101705.81;;;3.53;45.97
78014;BME280;67222;50.182;8.734;2023-02-28T10:29:10;101710.50;;;3.71;45.59
78014;BME280;67222;50.182;8.734;2023-02-28T10:31:36;101709.22;;;3.65;45.90
78014;BME280;67222;50.182;8.734;2023-02-28T10:34:01;101706.19;;;3.70;44.89
78014;BME280;67222;50.182;8.734;2023-02-28T10:36:28;101716.13;;;3.98;46.64
78014;BME280;67222;50.182;8.734;2023-02-28T10:38:53;101698.28;;;4.11;44.59
78014;BME280;67222;50.182;8.734;2023-02-28T10:44:13;101699.69;;;4.46;44.24
78014;BME280;67222;50.182;8.734;2023-02-28T10:46:40;101688.31;;;4.85;43.18
78014;BME280;67222;50.182;8.734;2023-02-28T10:49:13;101692.94;;;5.12;43.22
78014;BME280;67222;50.182;8.734;2023-02-28T10:51:40;101696.44;;;5.32;42.67
78014;BME280;67222;50.182;8.734;2023-02-28T10:54:15;101684.88;;;5.53;40.85
78014;BME280;67222;50.182;8.734;2023-02-28T10:56:40;101687.38;;;5.73;40.50
78014;BME280;67222;50.182;8.734;2023-02-28T10:59:28;101688.88;;;5.76;39.79
78014;BME280;67222;50.182;8.734;2023-02-28T11:01:54;101688.06;;;5.75;42.03
78014;BME280;67222;50.182;8.734;2023-02-28T11:04:34;101684.56;;;5.94;41.49
78014;BME280;67222;50.182;8.734;2023-02-28T11:07:18;101689.13;;;6.12;41.00
78014;BME280;67222;50.182;8.734;2023-02-28T11:09:50;101682.44;;;6.54;40.27
78014;BME280;67222;50.182;8.734;2023-02-28T11:12:36;101685.19;;;6.62;39.62
78014;BME280;67222;50.182;8.734;2023-02-28T11:15:28;101677.00;;;6.19;39.64
78014;BME280;67222;50.182;8.734;2023-02-28T11:20:23;101655.53;;;6.12;41.03
78014;BME280;67222;50.182;8.734;2023-02-28T11:22:50;101677.91;;;6.37;40.60
78014;BME280;67222;50.182;8.734;2023-02-28T11:25:22;101674.78;;;6.51;39.73
78014;BME280;67222;50.182;8.734;2023-02-28T11:27:57;101668.00;;;6.94;39.55
78014;BME280;67222;50.182;8.734;2023-02-28T11:30:36;101664.91;;;7.34;39.27
78014;BME280;67222;50.182;8.734;2023-02-28T11:33:27;101663.97;;;7.61;38.15
78014;BME280;67222;50.182;8.734;2023-02-28T11:35:58;101669.94;;;7.81;36.82
78014;BME280;67222;50.182;8.734;2023-02-28T11:38:25;101659.88;;;7.93;38.66
78014;BME280;67222;50.182;8.734;2023-02-28T11:43:26;101662.91;;;7.98;37.00
78014;BME280;67222;50.182;8.734;2023-02-28T11:46:59;101659.13;;;8.00;37.52
78014;BME280;67222;50.182;8.734;2023-02-28T11:49:02;101652.19;;;7.81;37.18
78014;BME280;67222;50.182;8.734;2023-02-28T11:51:34;101651.25;;;7.90;37.49
78014;BME280;67222;50.182;8.734;2023-02-28T11:56:47;101658.84;;;7.85;37.65
78014;BME280;67222;50.182;8.734;2023-02-28T12:02:31;101654.44;;;8.28;37.73
78014;BME280;67222;50.182;8.734;2023-02-28T12:10:26;101656.31;;;8.70;35.42
78014;BME280;67222;50.182;8.734;2023-02-28T12:13:12;101653.91;;;8.93;36.96
78014;BME280;67222;50.182;8.734;2023-02-28T12:15:57;101644.94;;;8.94;35.80
78014;BME280;67222;50.182;8.734;2023-02-28T12:27:11;101644.31;;;9.49;33.79
78014;BME280;67222;50.182;8.734;2023-02-28T12:30:00;101648.72;;;8.91;34.86
78014;BME280;67222;50.182;8.734;2023-02-28T12:32:32;101658.22;;;8.52;34.91
78014;BME280;67222;50.182;8.734;2023-02-28T12:37:35;101654.97;;;7.80;37.77
78014;BME280;67222;50.182;8.734;2023-02-28T12:40:11;101649.56;;;7.89;36.96
78014;BME280;67222;50.182;8.734;2023-02-28T12:42:40;101639.25;;;8.38;37.29
78014;BME280;67222;50.182;8.734;2023-02-28T12:45:15;101636.03;;;8.69;36.39
78014;BME280;67222;50.182;8.734;2023-02-28T12:47:44;101630.47;;;9.21;34.96
78014;BME280;67222;50.182;8.734;2023-02-28T12:50:11;101630.31;;;9.47;35.86
78014;BME280;67222;50.182;8.734;2023-02-28T12:53:45;101630.50;;;9.69;34.54
78014;BME280;67222;50.182;8.734;2023-02-28T12:55:42;101630.66;;;9.44;32.81
78014;BME280;67222;50.182;8.734;2023-02-28T12:58:32;101631.81;;;9.17;35.07
78014;BME280;67222;50.182;8.734;2023-02-28T13:01:34;101634.47;;;9.25;34.35
78014;BME280;67222;50.182;8.734;2023-02-28T13:04:23;101629.16;;;9.41;36.33
78014;BME280;67222;50.182;8.734;2023-02-28T13:07:32;101633.16;;;9.13;33.46
78014;BME280;67222;50.182;8.734;2023-02-28T13:09:57;101626.81;;;9.05;34.77
78014;BME280;67222;50.182;8.734;2023-02-28T13:12:23;101622.66;;;8.95;34.34
78014;BME280;67222;50.182;8.734;2023-02-28T13:14:50;101615.16;;;8.98;34.88
78014;BME280;67222;50.182;8.734;2023-02-28T13:17:20;101619.19;;;9.35;34.89
78014;BME280;67222;50.182;8.734;2023-02-28T13:19:55;101620.19;;;9.50;34.75
78014;BME280;67222;50.182;8.734;2023-02-28T13:22:47;101612.66;;;9.78;33.77
78014;BME280;67222;50.182;8.734;2023-02-28T13:27:52;101619.34;;;9.25;34.33
78014;BME280;67222;50.182;8.734;2023-02-28T13:33:35;101621.28;;;10.05;32.83
78014;BME280;67222;50.182;8.734;2023-02-28T13:38:47;101616.78;;;9.97;33.76
78014;BME280;67222;50.182;8.734;2023-02-28T13:44:07;101614.34;;;9.71;33.69
78014;BME280;67222;50.182;8.734;2023-02-28T13:46:35;101613.16;;;9.65;33.82
78014;BME280;67222;50.182;8.734;2023-02-28T13:51:48;101607.63;;;9.91;32.87
78014;BME280;67222;50.182;8.734;2023-02-28T13:57:18;101607.22;;;10.19;32.77
78014;BME280;67222;50.182;8.734;2023-02-28T13:59:50;101619.84;;;9.29;33.98
78014;BME280;67222;50.182;8.734;2023-02-28T14:05:20;101608.50;;;9.10;34.20
78014;BME280;67222;50.182;8.734;2023-02-28T14:07:57;101615.13;;;8.90;34.24
78014;BME280;67222;50.182;8.734;2023-02-28T14:10:41;101607.44;;;8.63;34.57
78014;BME280;67222;50.182;8.734;2023-02-28T14:15:59;101604.22;;;8.51;36.12
78014;BME280;67222;50.182;8.734;2023-02-28T14:21:16;101605.47;;;8.31;36.75
78014;BME280;67222;50.182;8.734;2023-02-28T14:32:27;101597.56;;;8.13;36.63
78014;BME280;67222;50.182;8.734;2023-02-28T14:35:40;101598.78;;;8.18;35.95
78014;BME280;67222;50.182;8.734;2023-02-28T14:38:14;101584.38;;;7.95;37.04
78014;BME280;67222;50.182;8.734;2023-02-28T14:40:41;101596.94;;;7.85;36.93
78014;BME280;67222;50.182;8.734;2023-02-28T14:43:20;101594.84;;;7.71;37.84
78014;BME280;67222;50.182;8.734;2023-02-28T14:45:50;101594.53;;;7.74;38.04
78014;BME280;67222;50.182;8.734;2023-02-28T14:48:17;101590.63;;;7.60;37.93
78014;BME280;67222;50.182;8.734;2023-02-28T14:50:49;101590.78;;;7.33;37.68
78014;BME280;67222;50.182;8.734;2023-02-28T14:53:18;101595.56;;;7.11;38.21
78014;BME280;67222;50.182;8.734;2023-02-28T14:55:46;101592.22;;;7.27;39.10
78014;BME280;67222;50.182;8.734;2023-02-28T14:58:29;101597.81;;;7.06;39.25
78014;BME280;67222;50.182;8.734;2023-02-28T15:01:00;101583.81;;;6.96;39.10
78014;BME280;67222;50.182;8.734;2023-02-28T15:03:35;101592.13;;;6.83;40.64
78014;BME280;67222;50.182;8.734;2023-02-28T15:06:15;101590.72;;;6.71;40.77
78014;BME280;67222;50.182;8.734;2023-02-28T15:08:43;101590.00;;;6.51;40.51
78014;BME280;67222;50.182;8.734;2023-02-28T15:11:18;101590.81;;;6.24;41.32
78014;BME280;67222;50.182;8.734;2023-02-28T15:13:48;101591.44;;;6.18;40.64
78014;BME280;67222;50.182;8.734;2023-02-28T15:16:20;101586.75;;;6.02;40.96
78014;BME280;67222;50.182;8.734;2023-02-28T15:18:50;101591.75;;;6.05;41.44
78014;BME280;67222;50.182;8.734;2023-02-28T15:21:22;101589.16;;;5.96;43.05
78014;BME280;67222;50.182;8.734;2023-02-28T15:23:59;101595.53;;;5.93;42.01
78014;BME280;67222;50.182;8.734;2023-02-28T15:26:29;101591.66;;;5.97;41.35
78014;BME280;67222;50.182;8.734;2023-02-28T15:29:11;101590.38;;;6.01;41.67
78014;BME280;67222;50.182;8.734;2023-02-28T15:31:45;101586.50;;;5.86;42.90
78014;BME280;67222;50.182;8.734;2023-02-28T15:34:34;101601.56;;;5.76;42.43
78014;BME280;67222;50.182;8.734;2023-02-28T15:37:00;101598.34;;;5.82;43.00
78014;BME280;67222;50.182;8.734;2023-02-28T15:39:27;101597.66;;;5.80;43.12
78014;BME280;67222;50.182;8.734;2023-02-28T15:42:10;101595.13;;;5.98;42.13
78014;BME280;67222;50.182;8.734;2023-02-28T15:44:36;101589.97;;;5.87;42.58
78014;BME280;67222;50.182;8.734;2023-02-28T15:47:04;101583.44;;;5.91;42.01
78014;BME280;67222;50.182;8.734;2023-02-28T15:49:40;101588.16;;;5.87;43.31
78014;BME280;67222;50.182;8.734;2023-02-28T15:52:14;101586.41;;;5.78;42.70
78014;BME280;67222;50.182;8.734;2023-02-28T15:54:41;101583.31;;;5.73;44.34
78014;BME280;67222;50.182;8.734;2023-02-28T15:57:13;101578.91;;;5.64;44.19
78014;BME280;67222;50.182;8.734;2023-02-28T15:59:49;101593.41;;;5.60;43.31
78014;BME280;67222;50.182;8.734;2023-02-28T16:07:34;101592.47;;;5.32;46.20
78014;BME280;67222;50.182;8.734;2023-02-28T16:10:00;101590.78;;;5.31;45.88
78014;BME280;67222;50.182;8.734;2023-02-28T16:12:28;101597.88;;;5.30;45.13
78014;BME280;67222;50.182;8.734;2023-02-28T16:14:55;101587.03;;;5.14;45.80
78014;BME280;67222;50.182;8.734;2023-02-28T16:17:24;101595.94;;;5.13;46.78
78014;BME280;67222;50.182;8.734;2023-02-28T16:19:51;101589.41;;;4.98;46.73
78014;BME280;67222;50.182;8.734;2023-02-28T16:22:16;101600.38;;;4.74;46.37
78014;BME280;67222;50.182;8.734;2023-02-28T16:24:42;101591.06;;;4.79;47.10
78014;BME280;67222;50.182;8.734;2023-02-28T16:27:16;101593.97;;;4.67;46.67
78014;BME280;67222;50.182;8.734;2023-02-28T16:29:43;101594.50;;;4.51;48.10
78014;BME280;67222;50.182;8.734;2023-02-28T16:32:11;101607.69;;;4.51;46.94
78014;BME280;67222;50.182;8.734;2023-02-28T16:34:37;101599.09;;;4.49;47.19
78014;BME280;67222;50.182;8.734;2023-02-28T16:37:03;101600.72;;;4.40;48.40
78014;BME280;67222;50.182;8.734;2023-02-28T16:39:29;101613.44;;;4.25;47.41
78014;BME280;67222;50.182;8.734;2023-02-28T16:41:54;101607.59;;;4.22;47.40
78014;BME280;67222;50.182;8.734;2023-02-28T16:44:33;101617.69;;;4.07;48.38
78014;BME280;67222;50.182;8.734;2023-02-28T16:47:00;101623.34;;;4.03;47.97
78014;BME280;67222;50.182;8.734;2023-02-28T16:49:26;101617.06;;;3.94;48.78
78014;BME280;67222;50.182;8.734;2023-02-28T16:51:52;101623.06;;;3.96;48.75
78014;BME280;67222;50.182;8.734;2023-02-28T16:54:17;101629.81;;;3.89;48.40
78014;BME280;67222;50.182;8.734;2023-02-28T16:56:47;101639.22;;;3.82;49.26
78014;BME280;67222;50.182;8.734;2023-02-28T16:59:13;101641.69;;;3.74;49.79
78014;BME280;67222;50.182;8.734;2023-02-28T17:01:40;101644.63;;;3.59;49.75
78014;BME280;67222;50.182;8.734;2023-02-28T17:04:05;101639.03;;;3.53;50.27
78014;BME280;67222;50.182;8.734;2023-02-28T17:06:30;101635.31;;;3.55;50.37
78014;BME280;67222;50.182;8.734;2023-02-28T17:08:57;101643.00;;;3.47;49.92
78014;BME280;67222;50.182;8.734;2023-02-28T17:11:23;101651.59;;;3.28;49.40
78014;BME280;67222;50.182;8.734;2023-02-28T17:13:49;101650.50;;;3.31;50.82
78014;BME280;67222;50.182;8.734;2023-02-28T17:16:26;101651.78;;;3.16;50.54
78014;BME280;67222;50.182;8.734;2023-02-28T17:18:54;101647.25;;;3.07;52.53
78014;BME280;67222;50.182;8.734;2023-02-28T17:21:21;101651.72;;;2.95;51.95
78014;BME280;67222;50.182;8.734;2023-02-28T17:23:46;101652.50;;;2.74;52.49
78014;BME280;67222;50.182;8.734;2023-02-28T17:26:13;101656.44;;;2.80;53.07
78014;BME280;67222;50.182;8.734;2023-02-28T17:28:39;101654.53;;;2.71;54.48
78014;BME280;67222;50.182;8.734;2023-02-28T17:31:04;101659.09;;;2.80;53.98
78014;BME280;67222;50.182;8.734;2023-02-28T17:33:30;101664.13;;;2.72;53.63
78014;BME280;67222;50.182;8.734;2023-02-28T17:35:55;101669.50;;;2.59;54.99
78014;BME280;67222;50.182;8.734;2023-02-28T17:38:20;101673.38;;;2.44;54.10
78014;BME280;67222;50.182;8.734;2023-02-28T17:40:48;101675.28;;;2.31;54.42
78014;BME280;67222;50.182;8.734;2023-02-28T17:43:13;101669.28;;;2.06;55.35
78014;BME280;67222;50.182;8.734;2023-02-28T17:45:39;101679.56;;;2.09;54.94
78014;BME280;67222;50.182;8.734;2023-02-28T17:48:05;101681.25;;;2.10;55.49
78014;BME280;67222;50.182;8.734;2023-02-28T17:50:31;101681.22;;;1.88;55.45
78014;BME280;67222;50.182;8.734;2023-02-28T17:52:57;101687.31;;;1.89;55.66
78014;BME280;67222;50.182;8.734;2023-02-28T17:55:23;101694.50;;;1.87;56.51
78014;BME280;67222;50.182;8.734;2023-02-28T17:57:48;101697.72;;;2.01;56.96
78014;BME280;67222;50.182;8.734;2023-02-28T18:00:16;101697.72;;;2.01;56.85
78014;BME280;67222;50.182;8.734;2023-02-28T18:02:43;101700.00;;;1.95;57.42
78014;BME280;67222;50.182;8.734;2023-02-28T18:05:09;101707.16;;;1.93;57.40
78014;BME280;67222;50.182;8.734;2023-02-28T18:07:36;101707.97;;;1.82;56.54
78014;BME280;67222;50.182;8.734;2023-02-28T18:10:02;101707.59;;;1.75;56.93
78014;BME280;67222;50.182;8.734;2023-02-28T18:12:28;101703.84;;;1.67;58.76
78014;BME280;67222;50.182;8.734;2023-02-28T18:14:53;101703.47;;;1.60;58.30
78014;BME280;67222;50.182;8.734;2023-02-28T18:17:19;101703.13;;;1.65;59.05
78014;BME280;67222;50.182;8.734;2023-02-28T18:19:44;101706.00;;;1.62;58.47
78014;BME280;67222;50.182;8.734;2023-02-28T18:22:09;101707.28;;;1.56;58.80
78014;BME280;67222;50.182;8.734;2023-02-28T18:24:34;101704.97;;;1.40;58.94
78014;BME280;67222;50.182;8.734;2023-02-28T18:27:01;101695.69;;;1.24;59.10
78014;BME280;67222;50.182;8.734;2023-02-28T18:29:27;101707.53;;;1.29;58.99
78014;BME280;67222;50.182;8.734;2023-02-28T18:31:54;101717.06;;;1.06;59.61
78014;BME280;67222;50.182;8.734;2023-02-28T18:34:20;101708.78;;;1.12;59.31
78014;BME280;67222;50.182;8.734;2023-02-28T18:36:46;101709.41;;;1.03;59.84
78014;BME280;67222;50.182;8.734;2023-02-28T18:39:13;101705.34;;;0.99;60.17
78014;BME280;67222;50.182;8.734;2023-02-28T18:41:39;101713.94;;;1.01;60.03
78014;BME280;67222;50.182;8.734;2023-02-28T18:44:04;101716.47;;;1.03;59.84
78014;BME280;67222;50.182;8.734;2023-02-28T18:46:30;101706.91;;;1.02;60.91
78014;BME280;67222;50.182;8.734;2023-02-28T18:48:55;101711.72;;;1.08;60.57
78014;BME280;67222;50.182;8.734;2023-02-28T18:51:23;101714.44;;;0.82;60.82
78014;BME280;67222;50.182;8.734;2023-02-28T18:53:48;101718.34;;;0.77;60.55
78014;BME280;67222;50.182;8.734;2023-02-28T18:56:16;101715.50;;;0.80;60.23
78014;BME280;67222;50.182;8.734;2023-02-28T18:58:43;101721.38;;;0.71;61.70
78014;BME280;67222;50.182;8.734;2023-02-28T19:01:20;101707.28;;;0.72;60.74
78014;BME280;67222;50.182;8.734;2023-02-28T19:03:47;101716.00;;;0.72;60.33
78014;BME280;67222;50.182;8.734;2023-02-28T19:06:15;101709.81;;;0.73;60.96
78014;BME280;67222;50.182;8.734;2023-02-28T19:08:40;101715.00;;;0.62;61.78
78014;BME280;67222;50.182;8.734;2023-02-28T19:11:11;101715.94;;;0.61;61.22
78014;BME280;67222;50.182;8.734;2023-02-28T19:13:37;101713.44;;;0.59;61.55
78014;BME280;67222;50.182;8.734;2023-02-28T19:16:03;101719.81;;;0.55;61.62
78014;BME280;67222;50.182;8.734;2023-02-28T19:18:29;101721.09;;;0.63;62.49
78014;BME280;67222;50.182;8.734;2023-02-28T19:20:54;101716.47;;;0.53;62.49
78014;BME280;67222;50.182;8.734;2023-02-28T19:23:19;101721.19;;;0.48;62.21
78014;BME280;67222;50.182;8.734;2023-02-28T19:25:45;101720.88;;;0.53;62.08
78014;BME280;67222;50.182;8.734;2023-02-28T19:28:10;101714.91;;;0.51;61.76
78014;BME280;67222;50.182;8.734;2023-02-28T19:30:36;101715.84;;;0.50;62.91
78014;BME280;67222;50.182;8.734;2023-02-28T19:33:01;101717.00;;;0.46;63.19
78014;BME280;67222;50.182;8.734;2023-02-28T19:35:28;101716.59;;;0.39;62.97
78014;BME280;67222;50.182;8.734;2023-02-28T19:37:54;101717.75;;;0.48;62.73
78014;BME280;67222;50.182;8.734;2023-02-28T19:40:19;101723.38;;;0.54;63.28
78014;BME280;67222;50.182;8.734;2023-02-28T19:42:44;101712.81;;;0.56;62.73
78014;BME280;67222;50.182;8.734;2023-02-28T19:45:10;101723.53;;;0.40;62.98
78014;BME280;67222;50.182;8.734;2023-02-28T19:47:39;101719.00;;;0.42;63.41
78014;BME280;67222;50.182;8.734;2023-02-28T19:50:05;101717.22;;;0.30;63.05
78014;BME280;67222;50.182;8.734;2023-02-28T19:52:31;101727.19;;;0.12;63.00
78014;BME280;67222;50.182;8.734;2023-02-28T19:54:56;101731.16;;;0.18;62.95
78014;BME280;67222;50.182;8.734;2023-02-28T19:57:21;101736.13;;;0.22;63.66
78014;BME280;67222;50.182;8.734;2023-02-28T19:59:47;101732.88;;;0.19;63.64
78014;BME280;67222;50.182;8.734;2023-02-28T20:02:13;101734.94;;;0.14;64.02